createdAt,value
2019-01-24T00:02:37.826Z,51.10
2019-01-24T00:05:26.329Z,51.83
2019-01-24T00:08:15.016Z,52.70
2019-01-24T00:10:44.460Z,46.00
2019-01-24T00:13:14.193Z,50.97
2019-01-24T00:15:44.684Z,54.00
2019-01-24T00:18:34.888Z,50.43
2019-01-24T00:27:05.295Z,55.63
2019-01-24T00:35:40.073Z,54.37
2019-01-24T00:38:20.224Z,55.23
2019-01-24T00:43:42.530Z,51.87
2019-01-24T00:46:12.556Z,53.80
2019-01-24T00:48:47.890Z,57.20
2019-01-24T00:51:17.461Z,52.20
2019-01-24T00:53:47.047Z,56.67
2019-01-24T00:56:16.632Z,57.63
2019-01-24T00:58:46.177Z,60.73
2019-01-24T01:01:15.782Z,54.10
2019-01-24T01:03:45.336Z,54.50
2019-01-24T01:06:14.986Z,57.63
2019-01-24T01:08:44.750Z,54.30
2019-01-24T01:11:14.237Z,54.03
2019-01-24T01:13:43.714Z,51.90
2019-01-24T01:16:13.269Z,49.93
2019-01-24T01:18:43.333Z,57.97
2019-01-24T01:21:13.252Z,57.87
2019-01-24T01:23:42.750Z,51.60
2019-01-24T01:26:13.269Z,62.70
2019-01-24T01:28:42.813Z,55.03
2019-01-24T01:31:12.353Z,59.13
2019-01-24T01:33:42.417Z,58.87
2019-01-24T01:36:11.915Z,61.00
2019-01-24T01:38:41.476Z,61.43
2019-01-24T01:41:10.978Z,67.97
2019-01-24T01:43:40.524Z,63.53
2019-01-24T01:46:10.119Z,65.53
2019-01-24T01:48:39.615Z,65.53
2019-01-24T01:51:09.124Z,61.47
2019-01-24T01:53:38.601Z,58.57
2019-01-24T01:56:08.492Z,64.43
2019-01-24T01:58:38.427Z,67.33
2019-01-24T02:01:08.104Z,70.47
2019-01-24T02:03:37.819Z,67.10
2019-01-24T02:06:07.403Z,70.80
2019-01-24T02:08:36.980Z,65.47
2019-01-24T02:11:06.988Z,68.80
2019-01-24T02:13:36.529Z,69.23
2019-01-24T02:16:06.419Z,68.00
2019-01-24T02:18:36.039Z,71.53
2019-01-24T02:21:05.762Z,69.80
2019-01-24T02:23:35.567Z,69.67
2019-01-24T02:26:05.192Z,72.07
2019-01-24T02:28:34.663Z,70.40
2019-01-24T02:31:04.263Z,72.40
2019-01-24T02:33:33.839Z,74.37
2019-01-24T02:36:03.326Z,74.33
2019-01-24T02:38:32.787Z,72.67
2019-01-24T02:41:02.316Z,74.40
2019-01-24T02:43:31.888Z,81.23
2019-01-24T02:46:01.672Z,72.93
2019-01-24T02:48:31.176Z,71.60
2019-01-24T02:51:00.763Z,75.17
2019-01-24T02:53:30.572Z,74.70
2019-01-24T02:56:00.103Z,75.43
2019-01-24T02:58:29.717Z,72.87
2019-01-24T03:00:59.217Z,77.37
2019-01-24T03:03:28.820Z,74.50
2019-01-24T03:05:58.397Z,70.03
2019-01-24T03:08:28.133Z,76.27
2019-01-24T03:10:57.688Z,74.33
2019-01-24T03:13:27.381Z,71.00
2019-01-24T03:15:57.519Z,73.70
2019-01-24T03:18:27.141Z,72.53
2019-01-24T03:20:56.678Z,71.60
2019-01-24T03:23:26.263Z,75.07
2019-01-24T03:25:55.846Z,72.83
2019-01-24T03:28:25.456Z,74.27
2019-01-24T03:30:55.148Z,66.47
2019-01-24T03:33:25.088Z,67.40
2019-01-24T03:35:54.621Z,69.00
2019-01-24T03:38:24.194Z,67.23
2019-01-24T03:40:53.755Z,70.73
2019-01-24T03:43:23.347Z,72.37
2019-01-24T03:45:53.211Z,72.17
2019-01-24T03:48:22.732Z,68.37
2019-01-24T03:50:52.207Z,70.67
2019-01-24T03:53:22.773Z,78.23
2019-01-24T03:55:52.491Z,70.27
2019-01-24T03:58:22.039Z,72.63
2019-01-24T04:00:52.019Z,70.00
2019-01-24T04:03:21.595Z,73.27
2019-01-24T04:05:51.492Z,66.67
2019-01-24T04:08:21.096Z,71.00
2019-01-24T04:10:50.613Z,74.37
2019-01-24T04:13:20.221Z,74.70
2019-01-24T04:15:49.776Z,75.67
2019-01-24T04:18:19.293Z,75.13
2019-01-24T04:20:48.902Z,71.17
2019-01-24T04:23:37.458Z,84.33
2019-01-24T04:26:07.053Z,76.23
2019-01-24T04:28:36.607Z,75.00
2019-01-24T04:31:06.167Z,73.33
2019-01-24T04:33:36.135Z,74.67
2019-01-24T04:36:05.641Z,76.33
2019-01-24T04:38:35.207Z,78.93
2019-01-24T04:41:04.772Z,75.23
2019-01-24T04:43:34.611Z,74.93
2019-01-24T04:46:04.225Z,76.80
2019-01-24T04:48:33.799Z,77.17
2019-01-24T04:51:03.299Z,79.30
2019-01-24T04:53:33.020Z,77.63
2019-01-24T04:56:02.582Z,72.93
2019-01-24T04:58:32.113Z,70.87
2019-01-24T05:01:01.700Z,74.35
2019-01-24T05:03:31.252Z,84.97
2019-01-24T05:06:01.108Z,78.87
2019-01-24T05:08:31.256Z,72.57
2019-01-24T05:11:01.151Z,74.33
2019-01-24T05:13:31.093Z,80.75
2019-01-24T05:16:00.636Z,75.57
2019-01-24T05:18:30.172Z,76.27
2019-01-24T05:20:59.773Z,80.07
2019-01-24T05:23:29.588Z,78.65
2019-01-24T05:25:59.237Z,79.83
2019-01-24T05:28:28.775Z,77.57
2019-01-24T05:30:58.662Z,82.07
2019-01-24T05:33:28.371Z,80.87
2019-01-24T05:35:58.271Z,79.73
2019-01-24T05:38:27.864Z,85.43
2019-01-24T05:40:57.417Z,81.73
2019-01-24T05:43:27.322Z,92.12
2019-01-24T05:45:56.907Z,84.33
2019-01-24T05:48:26.436Z,84.77
2019-01-24T05:50:56.110Z,84.33
2019-01-24T05:53:25.687Z,76.23
2019-01-24T05:55:55.463Z,79.47
2019-01-24T05:58:25.043Z,85.87
2019-01-24T06:00:55.270Z,78.97
2019-01-24T06:03:24.866Z,76.40
2019-01-24T06:05:54.445Z,80.77
2019-01-24T06:08:24.067Z,79.90
2019-01-24T06:10:54.134Z,87.20
2019-01-24T06:13:23.892Z,77.40
2019-01-24T06:15:53.788Z,75.93
2019-01-24T06:18:23.419Z,90.10
2019-01-24T06:20:53.011Z,86.37
2019-01-24T06:23:22.628Z,79.70
2019-01-24T06:25:52.227Z,86.43
2019-01-24T06:28:21.773Z,77.90
2019-01-24T06:30:51.393Z,85.53
2019-01-24T06:33:21.366Z,85.27
2019-01-24T06:35:51.279Z,86.20
2019-01-24T06:38:20.889Z,79.10
2019-01-24T06:40:50.498Z,81.33
2019-01-24T06:43:20.019Z,78.93
2019-01-24T06:45:49.535Z,76.93
2019-01-24T06:48:19.127Z,82.77
2019-01-24T06:50:48.662Z,76.27
2019-01-24T06:53:36.016Z,81.33
2019-01-24T06:56:24.595Z,82.43
2019-01-24T06:59:13.213Z,74.70
2019-01-24T07:02:01.882Z,87.43
2019-01-24T07:04:50.499Z,74.03
2019-01-24T07:10:48.271Z,78.90
2019-01-24T07:13:37.070Z,80.40
2019-01-24T07:16:26.057Z,79.83
2019-01-24T07:19:14.623Z,71.67
2019-01-24T07:22:03.426Z,76.50
2019-01-24T07:24:51.935Z,75.90
2019-01-24T07:27:40.479Z,74.70
2019-01-24T07:30:29.104Z,74.33
2019-01-24T07:33:17.672Z,75.13
2019-01-24T07:36:02.355Z,68.90
2019-01-24T07:38:41.531Z,73.57
2019-01-24T07:41:22.982Z,75.93
2019-01-24T07:46:56.245Z,71.10
2019-01-24T07:55:22.627Z,74.10
2019-01-24T07:58:03.432Z,75.00
2019-01-24T08:00:44.051Z,71.07
2019-01-24T08:06:17.818Z,73.30
2019-01-24T08:11:36.730Z,71.73
2019-01-24T08:14:25.271Z,74.33
2019-01-24T08:17:13.871Z,75.53
2019-01-24T08:20:02.420Z,75.87
2019-01-24T08:22:51.248Z,76.20
2019-01-24T08:28:20.564Z,74.10
2019-01-24T08:33:44.197Z,77.80
2019-01-24T08:36:25.148Z,79.33
2019-01-24T08:41:55.578Z,88.10
2019-01-24T08:44:37.120Z,77.77
2019-01-24T08:47:17.983Z,79.97
2019-01-24T08:50:02.312Z,79.30
2019-01-24T08:52:43.409Z,79.60
2019-01-24T08:55:24.752Z,76.10
2019-01-24T09:00:52.836Z,77.63
2019-01-24T09:03:34.304Z,74.17
2019-01-24T09:06:15.061Z,77.20
2019-01-24T09:11:52.493Z,75.60
2019-01-24T09:14:41.105Z,76.63
2019-01-24T09:17:29.703Z,73.60
2019-01-24T09:20:18.307Z,78.83
2019-01-24T09:23:07.237Z,72.97
2019-01-24T09:25:56.484Z,75.40
2019-01-24T09:28:45.017Z,77.90
2019-01-24T09:31:33.585Z,73.83
2019-01-24T09:34:22.134Z,75.53
2019-01-24T09:37:10.737Z,68.17
2019-01-24T09:42:38.185Z,73.00
2019-01-24T09:45:19.816Z,66.43
2019-01-24T09:56:40.573Z,65.23
2019-01-24T09:59:21.215Z,60.63
2019-01-24T10:02:02.918Z,56.33
2019-01-24T10:07:33.267Z,53.20
2019-01-24T10:13:04.294Z,49.33
2019-01-24T10:15:44.904Z,50.10
2019-01-24T10:21:12.788Z,57.23
2019-01-24T10:23:54.267Z,55.80
2019-01-24T10:26:34.834Z,62.43
2019-01-24T10:29:15.739Z,64.77
2019-01-24T10:34:40.250Z,68.97
2019-01-24T10:37:21.478Z,58.80
2019-01-24T10:40:02.809Z,60.00
2019-01-24T10:45:32.588Z,62.87
2019-01-24T10:48:14.196Z,59.60
2019-01-24T10:50:55.855Z,64.67
2019-01-24T10:53:39.820Z,56.57
2019-01-24T10:56:21.227Z,62.03
2019-01-24T10:59:01.998Z,62.27
2019-01-24T11:04:29.469Z,51.63
2019-01-24T11:18:33.643Z,50.00
2019-01-24T11:24:02.743Z,51.80
2019-01-24T11:29:34.067Z,49.30
2019-01-24T11:37:51.476Z,46.30
2019-01-24T11:43:29.237Z,45.07
2019-01-24T11:46:10.497Z,50.80
2019-01-24T11:48:51.958Z,49.87
2019-01-24T11:54:18.068Z,46.37
2019-01-24T11:59:47.716Z,44.40
2019-01-24T12:02:29.027Z,44.73
2019-01-24T12:07:48.354Z,42.93
2019-01-24T12:10:36.934Z,45.53
2019-01-24T12:13:25.585Z,46.63
2019-01-24T12:16:14.360Z,44.30
2019-01-24T12:19:02.900Z,46.23
2019-01-24T12:21:32.432Z,51.03
2019-01-24T12:27:13.120Z,50.03
2019-01-24T12:30:01.685Z,50.10
2019-01-24T12:32:50.248Z,48.00
2019-01-24T12:35:38.911Z,46.33
2019-01-24T12:38:27.432Z,50.17
2019-01-24T12:41:08.306Z,41.40
2019-01-24T12:43:49.476Z,50.13
2019-01-24T12:46:30.308Z,52.57
2019-01-24T12:52:01.120Z,50.93
2019-01-24T12:54:42.798Z,49.20
2019-01-24T12:57:24.372Z,45.37
2019-01-24T13:11:32.682Z,47.77
2019-01-24T13:14:14.371Z,44.13
2019-01-24T13:16:44.539Z,41.90
2019-01-24T13:19:14.978Z,46.50
2019-01-24T13:21:45.243Z,50.65
2019-01-24T13:27:36.036Z,47.07
2019-01-24T13:33:08.848Z,50.88
2019-01-24T13:35:38.896Z,44.57
2019-01-24T13:41:29.310Z,43.20
2019-01-24T13:50:19.389Z,48.27
2019-01-24T13:53:08.068Z,43.17
2019-01-24T13:55:56.675Z,46.90
2019-01-24T13:58:45.353Z,45.53
2019-01-24T14:01:34.004Z,49.70
2019-01-24T14:07:36.276Z,42.37
2019-01-24T14:10:24.908Z,39.00
2019-01-24T14:16:15.583Z,41.47
2019-01-24T14:19:04.290Z,48.20
2019-01-24T14:21:55.519Z,43.53
2019-01-24T14:24:44.924Z,47.63
2019-01-24T14:27:28.972Z,42.63
2019-01-24T14:33:00.047Z,45.80
2019-01-24T14:35:41.626Z,41.37
2019-01-24T14:38:22.842Z,44.17
2019-01-24T14:43:48.978Z,47.80
2019-01-24T14:55:02.423Z,47.60
2019-01-24T14:57:44.047Z,47.60
2019-01-24T15:03:14.868Z,42.63
2019-01-24T15:11:35.415Z,47.03
2019-01-24T15:17:02.925Z,45.63
2019-01-24T15:22:33.260Z,43.07
2019-01-24T15:25:14.810Z,42.93
2019-01-24T15:27:56.676Z,42.80
2019-01-24T15:30:38.914Z,40.17
2019-01-24T15:33:20.076Z,40.80
2019-01-24T15:36:01.784Z,40.77
2019-01-24T15:38:43.002Z,42.90
2019-01-24T15:41:24.472Z,44.83
2019-01-24T15:44:05.982Z,42.97
2019-01-24T15:46:50.142Z,42.80
2019-01-24T15:52:18.433Z,39.13
2019-01-24T15:54:59.953Z,42.50
2019-01-24T15:57:29.593Z,44.93
2019-01-24T16:00:22.293Z,42.03
2019-01-24T16:03:10.970Z,44.50
2019-01-24T16:05:59.554Z,37.33
2019-01-24T16:11:42.212Z,42.13
2019-01-24T16:14:11.801Z,36.73
2019-01-24T16:17:00.674Z,47.30
2019-01-24T16:22:40.691Z,45.90
2019-01-24T16:25:50.182Z,42.73
2019-01-24T16:28:32.005Z,44.20
2019-01-24T16:31:13.434Z,39.33
2019-01-24T16:33:55.141Z,42.53
2019-01-24T16:36:36.365Z,43.43
2019-01-24T16:39:17.865Z,44.43
2019-01-24T16:41:58.490Z,44.27
2019-01-24T16:47:28.445Z,42.00
2019-01-24T16:52:58.373Z,45.10
2019-01-24T16:55:39.084Z,44.53
2019-01-24T16:58:20.640Z,49.27
2019-01-24T17:01:02.160Z,47.93
2019-01-24T17:03:43.164Z,45.47
2019-01-24T17:06:24.498Z,48.73
2019-01-24T17:09:05.931Z,47.97
2019-01-24T17:11:47.521Z,52.77
2019-01-24T17:14:28.700Z,48.03
2019-01-24T17:17:10.273Z,50.70
2019-01-24T17:22:40.384Z,52.37
2019-01-24T17:28:11.529Z,51.93
2019-01-24T17:33:41.477Z,51.23
2019-01-24T17:39:12.053Z,51.33
2019-01-24T17:41:53.250Z,47.97
2019-01-24T17:44:34.842Z,50.40
2019-01-24T17:47:16.250Z,50.87
2019-01-24T17:49:56.875Z,51.10
2019-01-24T17:52:38.166Z,48.97
2019-01-24T17:55:19.704Z,51.47
2019-01-24T17:58:00.989Z,54.03
2019-01-24T18:03:28.209Z,51.50
2019-01-24T18:06:09.729Z,47.43
2019-01-24T18:08:51.363Z,45.40
2019-01-24T18:11:33.499Z,56.23
2019-01-24T18:14:14.681Z,55.13
2019-01-24T18:16:57.229Z,49.37
2019-01-24T18:19:38.791Z,57.33
2019-01-24T18:25:16.056Z,51.93
2019-01-24T18:27:55.482Z,53.40
2019-01-24T18:30:39.874Z,52.00
2019-01-24T18:33:28.441Z,51.20
2019-01-24T18:36:17.057Z,57.63
2019-01-24T18:42:01.453Z,57.03
2019-01-24T18:44:31.096Z,51.33
2019-01-24T18:47:19.734Z,52.67
2019-01-24T18:50:10.251Z,49.37
2019-01-24T18:52:58.849Z,49.20
2019-01-24T18:55:28.348Z,55.17
2019-01-24T18:57:57.914Z,55.80
2019-01-24T19:00:32.056Z,51.80
2019-01-24T19:03:01.702Z,52.30
2019-01-24T19:05:31.557Z,57.83
2019-01-24T19:08:01.129Z,52.33
2019-01-24T19:10:30.677Z,57.43
2019-01-24T19:13:00.231Z,48.00
2019-01-24T19:15:29.772Z,51.27
2019-01-24T19:18:00.171Z,55.37
2019-01-24T19:20:29.722Z,54.67
2019-01-24T19:22:59.216Z,49.57
2019-01-24T19:25:28.787Z,54.17
2019-01-24T19:27:58.329Z,49.33
2019-01-24T19:30:30.563Z,54.30
2019-01-24T19:33:00.176Z,49.60
2019-01-24T19:35:30.387Z,52.87
2019-01-24T19:37:59.960Z,48.30
2019-01-24T19:40:29.569Z,54.40
2019-01-24T19:42:59.606Z,56.80
2019-01-24T19:45:29.096Z,53.98
2019-01-24T19:47:58.869Z,48.43
2019-01-24T19:50:29.383Z,52.03
2019-01-24T19:52:59.073Z,50.90
2019-01-24T19:55:28.704Z,55.27
2019-01-24T19:57:58.254Z,55.87
2019-01-24T20:00:29.733Z,49.60
2019-01-24T20:02:59.504Z,52.17
2019-01-24T20:05:29.101Z,52.60
2019-01-24T20:07:58.697Z,50.77
2019-01-24T20:10:29.432Z,57.17
2019-01-24T20:12:59.167Z,52.90
2019-01-24T20:15:30.296Z,58.93
2019-01-24T20:18:00.587Z,54.87
2019-01-24T20:20:30.461Z,56.73
2019-01-24T20:23:00.044Z,55.07
2019-01-24T20:25:31.107Z,52.57
2019-01-24T20:28:00.696Z,57.03
2019-01-24T20:30:32.188Z,54.77
2019-01-24T20:33:02.678Z,57.83
2019-01-24T20:35:58.142Z,52.43
2019-01-24T20:38:28.325Z,55.87
2019-01-24T20:40:58.809Z,56.50
2019-01-24T20:43:35.193Z,52.23
2019-01-24T20:45:59.822Z,52.73
2019-01-24T20:48:29.783Z,56.53
2019-01-24T20:50:59.394Z,53.20
2019-01-24T20:53:28.969Z,53.40
2019-01-24T20:55:58.578Z,56.50
2019-01-24T20:58:28.192Z,56.97
2019-01-24T21:00:58.172Z,55.57
2019-01-24T21:03:27.875Z,57.77
2019-01-24T21:05:57.446Z,62.13
2019-01-24T21:08:27.024Z,59.87
2019-01-24T21:10:56.653Z,58.30
2019-01-24T21:13:26.206Z,54.60
2019-01-24T21:15:55.885Z,63.80
2019-01-24T21:18:25.562Z,58.07
2019-01-24T21:20:55.153Z,61.47
2019-01-24T21:23:24.833Z,58.97
2019-01-24T21:25:54.319Z,57.97
2019-01-24T21:28:24.186Z,67.37
2019-01-24T21:30:53.840Z,64.10
2019-01-24T21:33:23.469Z,57.30
2019-01-24T21:35:53.137Z,55.80
2019-01-24T21:38:22.785Z,62.07
2019-01-24T21:40:52.448Z,55.37
2019-01-24T21:43:22.135Z,64.07
2019-01-24T21:45:51.713Z,65.70
2019-01-24T21:48:21.377Z,57.63
2019-01-24T21:50:50.938Z,57.77
2019-01-24T21:53:20.528Z,59.30
2019-01-24T21:55:50.548Z,60.00
2019-01-24T21:58:21.082Z,60.57
2019-01-24T22:00:50.879Z,57.70
2019-01-24T22:03:20.491Z,58.77
2019-01-24T22:05:50.516Z,57.10
2019-01-24T22:08:20.408Z,60.47
2019-01-24T22:10:49.996Z,59.07
2019-01-24T22:13:19.926Z,57.90
2019-01-24T22:15:49.654Z,60.17
2019-01-24T22:18:19.214Z,68.27
2019-01-24T22:20:55.431Z,61.40
2019-01-24T22:23:20.015Z,63.30
2019-01-24T22:25:49.619Z,62.77
2019-01-24T22:28:38.198Z,62.40
2019-01-24T22:31:07.987Z,58.57
2019-01-24T22:33:37.885Z,66.17
2019-01-24T22:36:07.808Z,64.40
2019-01-24T22:38:37.392Z,55.90
2019-01-24T22:41:07.020Z,58.97
2019-01-24T22:43:37.062Z,61.43
2019-01-24T22:46:06.645Z,57.07
2019-01-24T22:48:36.208Z,61.63
2019-01-24T22:51:05.800Z,54.93
2019-01-24T22:53:35.422Z,54.83
2019-01-24T22:56:05.327Z,53.73
2019-01-24T22:58:34.860Z,43.03
2019-01-24T23:01:33.998Z,47.13
2019-01-24T23:04:25.791Z,49.50
2019-01-24T23:06:55.510Z,44.07
2019-01-24T23:09:24.995Z,51.47
2019-01-24T23:11:54.560Z,47.17
2019-01-24T23:14:24.037Z,49.53
2019-01-24T23:16:53.636Z,46.37
2019-01-24T23:19:23.145Z,53.30
2019-01-24T23:21:52.776Z,56.20
2019-01-24T23:24:22.331Z,55.03
2019-01-24T23:26:51.814Z,55.57
2019-01-24T23:29:21.751Z,48.73
2019-01-24T23:31:54.547Z,53.87
2019-01-24T23:34:24.154Z,57.47
2019-01-24T23:36:53.767Z,57.83
2019-01-24T23:39:23.382Z,48.33
2019-01-24T23:41:52.924Z,50.53
2019-01-24T23:44:22.515Z,53.93
2019-01-24T23:46:52.117Z,52.40
2019-01-24T23:49:22.039Z,53.00
2019-01-24T23:51:51.572Z,55.73
2019-01-24T23:54:21.130Z,56.53
2019-01-24T23:56:50.607Z,54.00
2019-01-24T23:59:20.177Z,55.07
